sensor_id;sensor_type;location;lat;lon;timestamp;temperature;humidity
29241;DHT22;16268;49.880;8.648;2023-04-24T00:00:55;12.80;99.90
29241;DHT22;16268;49.880;8.648;2023-04-24T00:03:22;12.80;99.90
29241;DHT22;16268;49.880;8.648;2023-04-24T00:05:48;12.80;99.90
29241;DHT22;16268;49.880;8.648;2023-04-24T00:08:13;12.80;99.90
29241;DHT22;16268;49.880;8.648;2023-04-24T00:10:39;12.80;99.90
29241;DHT22;16268;49.880;8.648;2023-04-24T00:13:05;12.80;99.90
29241;DHT22;16268;49.880;8.648;2023-04-24T00:15:30;12.80;99.90
29241;DHT22;16268;49.880;8.648;2023-04-24T00:17:56;12.80;99.90
29241;DHT22;16268;49.880;8.648;2023-04-24T00:20:22;12.80;99.90
29241;DHT22;16268;49.880;8.648;2023-04-24T00:22:48;12.80;99.90
29241;DHT22;16268;49.880;8.648;2023-04-24T00:25:13;12.80;99.90
29241;DHT22;16268;49.880;8.648;2023-04-24T00:27:39;12.80;99.90
29241;DHT22;16268;49.880;8.648;2023-04-24T00:30:05;12.90;99.90
29241;DHT22;16268;49.880;8.648;2023-04-24T00:32:31;12.90;99.90
29241;DHT22;16268;49.880;8.648;2023-04-24T00:34:56;12.90;99.90
29241;DHT22;16268;49.880;8.648;2023-04-24T00:37:23;12.90;99.90
29241;DHT22;16268;49.880;8.648;2023-04-24T00:39:49;12.80;99.90
29241;DHT22;16268;49.880;8.648;2023-04-24T00:42:14;12.90;99.90
29241;DHT22;16268;49.880;8.648;2023-04-24T00:44:40;12.80;99.90
29241;DHT22;16268;49.880;8.648;2023-04-24T00:47:06;12.90;99.90
29241;DHT22;16268;49.880;8.648;2023-04-24T00:49:32;12.90;99.90
29241;DHT22;16268;49.880;8.648;2023-04-24T00:51:57;12.80;99.90
29241;DHT22;16268;49.880;8.648;2023-04-24T00:54:24;12.80;99.90
29241;DHT22;16268;49.880;8.648;2023-04-24T00:56:50;12.70;99.90
29241;DHT22;16268;49.880;8.648;2023-04-24T00:59:17;12.70;99.90
29241;DHT22;16268;49.880;8.648;2023-04-24T01:01:44;12.70;99.90
29241;DHT22;16268;49.880;8.648;2023-04-24T01:04:11;12.70;99.90
29241;DHT22;16268;49.880;8.648;2023-04-24T01:10:24;12.70;99.90
29241;DHT22;16268;49.880;8.648;2023-04-24T01:12:51;12.70;99.90
29241;DHT22;16268;49.880;8.648;2023-04-24T01:15:17;12.70;99.90
29241;DHT22;16268;49.880;8.648;2023-04-24T01:17:42;12.60;99.90
29241;DHT22;16268;49.880;8.648;2023-04-24T01:20:08;12.60;99.90
29241;DHT22;16268;49.880;8.648;2023-04-24T01:22:34;12.50;99.90
29241;DHT22;16268;49.880;8.648;2023-04-24T01:25:00;12.50;99.90
29241;DHT22;16268;49.880;8.648;2023-04-24T01:27:26;12.50;99.90
29241;DHT22;16268;49.880;8.648;2023-04-24T01:29:51;12.40;99.90
29241;DHT22;16268;49.880;8.648;2023-04-24T01:32:17;12.40;99.90
29241;DHT22;16268;49.880;8.648;2023-04-24T01:34:44;12.30;99.90
29241;DHT22;16268;49.880;8.648;2023-04-24T01:37:10;12.30;99.90
29241;DHT22;16268;49.880;8.648;2023-04-24T01:39:36;12.30;99.90
29241;DHT22;16268;49.880;8.648;2023-04-24T01:42:01;12.30;99.90
29241;DHT22;16268;49.880;8.648;2023-04-24T01:44:28;12.30;99.90
29241;DHT22;16268;49.880;8.648;2023-04-24T01:46:54;12.40;99.90
29241;DHT22;16268;49.880;8.648;2023-04-24T01:49:20;12.40;99.90
29241;DHT22;16268;49.880;8.648;2023-04-24T01:51:46;12.50;99.90
29241;DHT22;16268;49.880;8.648;2023-04-24T01:54:12;12.50;99.90
29241;DHT22;16268;49.880;8.648;2023-04-24T01:56:40;12.50;99.90
29241;DHT22;16268;49.880;8.648;2023-04-24T01:59:07;12.40;99.90
29241;DHT22;16268;49.880;8.648;2023-04-24T02:01:35;12.40;99.90
29241;DHT22;16268;49.880;8.648;2023-04-24T02:04:01;12.40;99.90
29241;DHT22;16268;49.880;8.648;2023-04-24T02:06:27;12.40;99.90
29241;DHT22;16268;49.880;8.648;2023-04-24T02:08:52;12.40;99.90
29241;DHT22;16268;49.880;8.648;2023-04-24T02:11:18;12.40;99.90
29241;DHT22;16268;49.880;8.648;2023-04-24T02:13:44;12.30;99.90
29241;DHT22;16268;49.880;8.648;2023-04-24T02:16:10;12.40;99.90
29241;DHT22;16268;49.880;8.648;2023-04-24T02:18:35;12.40;99.90
29241;DHT22;16268;49.880;8.648;2023-04-24T02:21:01;12.40;99.90
29241;DHT22;16268;49.880;8.648;2023-04-24T02:23:26;12.50;99.90
29241;DHT22;16268;49.880;8.648;2023-04-24T02:25:52;12.50;99.90
29241;DHT22;16268;49.880;8.648;2023-04-24T02:28:18;12.40;99.90
29241;DHT22;16268;49.880;8.648;2023-04-24T02:30:44;12.40;99.90
29241;DHT22;16268;49.880;8.648;2023-04-24T02:33:11;12.40;99.90
29241;DHT22;16268;49.880;8.648;2023-04-24T02:35:36;12.40;99.90
29241;DHT22;16268;49.880;8.648;2023-04-24T02:38:03;12.40;99.90
29241;DHT22;16268;49.880;8.648;2023-04-24T02:40:29;12.40;99.90
29241;DHT22;16268;49.880;8.648;2023-04-24T02:42:54;12.30;99.90
29241;DHT22;16268;49.880;8.648;2023-04-24T02:45:20;12.30;99.90
29241;DHT22;16268;49.880;8.648;2023-04-24T02:47:45;12.30;99.90
29241;DHT22;16268;49.880;8.648;2023-04-24T02:50:11;12.20;99.90
29241;DHT22;16268;49.880;8.648;2023-04-24T02:52:37;12.20;99.90
29241;DHT22;16268;49.880;8.648;2023-04-24T02:55:02;12.20;99.90
29241;DHT22;16268;49.880;8.648;2023-04-24T02:57:28;12.20;99.90
29241;DHT22;16268;49.880;8.648;2023-04-24T02:59:53;12.20;99.90
29241;DHT22;16268;49.880;8.648;2023-04-24T03:02:19;12.20;99.90
29241;DHT22;16268;49.880;8.648;2023-04-24T03:04:46;12.20;99.90
29241;DHT22;16268;49.880;8.648;2023-04-24T03:07:13;12.10;99.90
29241;DHT22;16268;49.880;8.648;2023-04-24T03:09:40;12.10;99.90
29241;DHT22;16268;49.880;8.648;2023-04-24T03:12:05;12.10;99.90
29241;DHT22;16268;49.880;8.648;2023-04-24T03:14:31;12.10;99.90
29241;DHT22;16268;49.880;8.648;2023-04-24T03:16:56;12.00;99.90
29241;DHT22;16268;49.880;8.648;2023-04-24T03:19:22;12.00;99.90
29241;DHT22;16268;49.880;8.648;2023-04-24T03:21:48;12.00;99.90
29241;DHT22;16268;49.880;8.648;2023-04-24T03:24:14;12.00;99.90
29241;DHT22;16268;49.880;8.648;2023-04-24T03:26:39;12.00;99.90
29241;DHT22;16268;49.880;8.648;2023-04-24T03:29:05;12.00;99.90
29241;DHT22;16268;49.880;8.648;2023-04-24T03:31:30;11.90;99.90
29241;DHT22;16268;49.880;8.648;2023-04-24T03:33:56;11.80;99.90
29241;DHT22;16268;49.880;8.648;2023-04-24T03:36:21;11.70;99.90
29241;DHT22;16268;49.880;8.648;2023-04-24T03:38:47;11.70;99.90
29241;DHT22;16268;49.880;8.648;2023-04-24T03:41:12;11.60;99.90
29241;DHT22;16268;49.880;8.648;2023-04-24T03:43:38;11.60;99.90
29241;DHT22;16268;49.880;8.648;2023-04-24T03:46:04;11.50;99.90
29241;DHT22;16268;49.880;8.648;2023-04-24T03:48:29;11.50;99.90
29241;DHT22;16268;49.880;8.648;2023-04-24T03:50:55;11.50;99.90
29241;DHT22;16268;49.880;8.648;2023-04-24T03:53:21;11.50;99.90
29241;DHT22;16268;49.880;8.648;2023-04-24T03:55:46;11.50;99.90
29241;DHT22;16268;49.880;8.648;2023-04-24T03:58:12;11.50;99.90
29241;DHT22;16268;49.880;8.648;2023-04-24T04:00:39;11.40;99.90
29241;DHT22;16268;49.880;8.648;2023-04-24T04:03:06;11.40;99.90
29241;DHT22;16268;49.880;8.648;2023-04-24T04:05:31;11.40;99.90
29241;DHT22;16268;49.880;8.648;2023-04-24T04:07:57;11.40;99.90
29241;DHT22;16268;49.880;8.648;2023-04-24T04:10:22;11.40;99.90
29241;DHT22;16268;49.880;8.648;2023-04-24T04:12:48;11.30;99.90
29241;DHT22;16268;49.880;8.648;2023-04-24T04:15:13;11.30;99.90
29241;DHT22;16268;49.880;8.648;2023-04-24T04:17:39;11.20;99.90
29241;DHT22;16268;49.880;8.648;2023-04-24T04:20:05;11.10;99.90
29241;DHT22;16268;49.880;8.648;2023-04-24T04:22:40;11.00;99.90
29241;DHT22;16268;49.880;8.648;2023-04-24T04:25:06;10.90;99.90
29241;DHT22;16268;49.880;8.648;2023-04-24T04:27:32;10.90;99.90
29241;DHT22;16268;49.880;8.648;2023-04-24T04:30:01;10.80;99.90
29241;DHT22;16268;49.880;8.648;2023-04-24T04:32:33;10.80;99.90
29241;DHT22;16268;49.880;8.648;2023-04-24T04:35:00;10.80;99.90
29241;DHT22;16268;49.880;8.648;2023-04-24T04:37:35;10.70;99.90
29241;DHT22;16268;49.880;8.648;2023-04-24T04:40:01;10.70;99.90
29241;DHT22;16268;49.880;8.648;2023-04-24T04:42:31;10.60;99.90
29241;DHT22;16268;49.880;8.648;2023-04-24T04:44:57;10.60;99.90
29241;DHT22;16268;49.880;8.648;2023-04-24T04:47:23;10.60;99.90
29241;DHT22;16268;49.880;8.648;2023-04-24T04:49:50;10.60;99.90
29241;DHT22;16268;49.880;8.648;2023-04-24T04:52:17;10.60;99.90
29241;DHT22;16268;49.880;8.648;2023-04-24T04:54:43;10.60;99.90
29241;DHT22;16268;49.880;8.648;2023-04-24T04:57:08;10.60;99.90
29241;DHT22;16268;49.880;8.648;2023-04-24T04:59:34;10.60;99.90
29241;DHT22;16268;49.880;8.648;2023-04-24T05:02:00;10.70;99.90
29241;DHT22;16268;49.880;8.648;2023-04-24T05:04:26;10.70;99.90
29241;DHT22;16268;49.880;8.648;2023-04-24T05:06:52;10.80;99.90
29241;DHT22;16268;49.880;8.648;2023-04-24T05:09:18;10.90;99.90
29241;DHT22;16268;49.880;8.648;2023-04-24T05:11:43;11.00;99.90
29241;DHT22;16268;49.880;8.648;2023-04-24T05:14:09;11.10;99.90
29241;DHT22;16268;49.880;8.648;2023-04-24T05:16:34;11.10;99.90
29241;DHT22;16268;49.880;8.648;2023-04-24T05:19:02;11.20;99.90
29241;DHT22;16268;49.880;8.648;2023-04-24T05:21:27;11.50;99.90
29241;DHT22;16268;49.880;8.648;2023-04-24T05:23:53;11.90;99.90
29241;DHT22;16268;49.880;8.648;2023-04-24T05:26:18;12.50;99.90
29241;DHT22;16268;49.880;8.648;2023-04-24T05:28:44;13.50;99.90
29241;DHT22;16268;49.880;8.648;2023-04-24T05:31:10;13.80;99.90
29241;DHT22;16268;49.880;8.648;2023-04-24T05:33:37;13.80;99.90
29241;DHT22;16268;49.880;8.648;2023-04-24T05:36:03;13.40;99.90
29241;DHT22;16268;49.880;8.648;2023-04-24T05:38:29;13.10;99.90
29241;DHT22;16268;49.880;8.648;2023-04-24T05:40:54;13.10;99.90
29241;DHT22;16268;49.880;8.648;2023-04-24T05:43:20;13.20;99.90
29241;DHT22;16268;49.880;8.648;2023-04-24T05:45:46;13.30;99.90
29241;DHT22;16268;49.880;8.648;2023-04-24T05:48:14;14.30;99.90
29241;DHT22;16268;49.880;8.648;2023-04-24T05:50:40;15.30;99.90
29241;DHT22;16268;49.880;8.648;2023-04-24T05:53:05;15.80;99.90
29241;DHT22;16268;49.880;8.648;2023-04-24T05:55:32;15.80;99.90
29241;DHT22;16268;49.880;8.648;2023-04-24T05:57:58;16.10;99.90
29241;DHT22;16268;49.880;8.648;2023-04-24T06:00:24;17.20;99.90
29241;DHT22;16268;49.880;8.648;2023-04-24T06:02:50;18.40;99.90
29241;DHT22;16268;49.880;8.648;2023-04-24T06:05:17;19.20;99.90
29241;DHT22;16268;49.880;8.648;2023-04-24T06:07:42;19.90;99.90
29241;DHT22;16268;49.880;8.648;2023-04-24T06:10:09;20.50;99.90
29241;DHT22;16268;49.880;8.648;2023-04-24T06:12:34;19.70;99.90
29241;DHT22;16268;49.880;8.648;2023-04-24T06:15:00;18.90;99.90
29241;DHT22;16268;49.880;8.648;2023-04-24T06:17:26;18.30;99.90
29241;DHT22;16268;49.880;8.648;2023-04-24T06:19:51;18.20;99.90
29241;DHT22;16268;49.880;8.648;2023-04-24T06:22:17;17.90;99.90
29241;DHT22;16268;49.880;8.648;2023-04-24T06:24:42;17.90;99.90
29241;DHT22;16268;49.880;8.648;2023-04-24T06:27:08;18.00;99.90
29241;DHT22;16268;49.880;8.648;2023-04-24T06:29:33;18.00;99.90
29241;DHT22;16268;49.880;8.648;2023-04-24T06:31:59;17.70;99.90
29241;DHT22;16268;49.880;8.648;2023-04-24T06:34:25;18.10;99.90
29241;DHT22;16268;49.880;8.648;2023-04-24T06:36:51;18.40;99.90
29241;DHT22;16268;49.880;8.648;2023-04-24T06:39:16;18.80;99.90
29241;DHT22;16268;49.880;8.648;2023-04-24T06:41:42;19.30;99.90
29241;DHT22;16268;49.880;8.648;2023-04-24T06:44:08;18.40;99.90
29241;DHT22;16268;49.880;8.648;2023-04-24T06:46:33;18.40;99.90
29241;DHT22;16268;49.880;8.648;2023-04-24T06:49:00;17.90;99.90
29241;DHT22;16268;49.880;8.648;2023-04-24T06:51:26;18.10;99.90
29241;DHT22;16268;49.880;8.648;2023-04-24T06:53:53;18.50;99.90
29241;DHT22;16268;49.880;8.648;2023-04-24T06:56:19;18.60;99.90
29241;DHT22;16268;49.880;8.648;2023-04-24T06:58:45;19.00;99.90
29241;DHT22;16268;49.880;8.648;2023-04-24T07:01:11;18.70;99.90
29241;DHT22;16268;49.880;8.648;2023-04-24T07:03:37;18.10;99.90
29241;DHT22;16268;49.880;8.648;2023-04-24T07:06:03;17.40;99.90
29241;DHT22;16268;49.880;8.648;2023-04-24T07:08:29;16.60;99.90
29241;DHT22;16268;49.880;8.648;2023-04-24T07:10:56;16.10;99.90
29241;DHT22;16268;49.880;8.648;2023-04-24T07:13:22;16.10;99.90
29241;DHT22;16268;49.880;8.648;2023-04-24T07:15:48;16.80;99.90
29241;DHT22;16268;49.880;8.648;2023-04-24T07:18:16;17.30;99.90
29241;DHT22;16268;49.880;8.648;2023-04-24T07:20:42;17.00;99.90
29241;DHT22;16268;49.880;8.648;2023-04-24T07:23:07;16.40;99.90
29241;DHT22;16268;49.880;8.648;2023-04-24T07:25:33;15.80;99.90
29241;DHT22;16268;49.880;8.648;2023-04-24T07:27:59;15.40;99.90
29241;DHT22;16268;49.880;8.648;2023-04-24T07:30:25;15.10;99.90
29241;DHT22;16268;49.880;8.648;2023-04-24T07:32:51;14.80;99.90
29241;DHT22;16268;49.880;8.648;2023-04-24T07:35:16;14.40;99.90
29241;DHT22;16268;49.880;8.648;2023-04-24T07:37:42;14.10;99.90
29241;DHT22;16268;49.880;8.648;2023-04-24T07:40:12;14.00;99.90
29241;DHT22;16268;49.880;8.648;2023-04-24T07:42:38;14.00;99.90
29241;DHT22;16268;49.880;8.648;2023-04-24T07:45:04;14.00;99.90
29241;DHT22;16268;49.880;8.648;2023-04-24T07:47:30;14.00;99.90
29241;DHT22;16268;49.880;8.648;2023-04-24T07:49:56;14.20;99.90
29241;DHT22;16268;49.880;8.648;2023-04-24T07:52:22;14.50;99.90
29241;DHT22;16268;49.880;8.648;2023-04-24T07:54:47;15.10;99.90
29241;DHT22;16268;49.880;8.648;2023-04-24T07:57:13;16.20;99.90
29241;DHT22;16268;49.880;8.648;2023-04-24T07:59:39;16.60;99.90
29241;DHT22;16268;49.880;8.648;2023-04-24T08:02:04;16.40;99.90
29241;DHT22;16268;49.880;8.648;2023-04-24T08:04:31;15.90;99.90
29241;DHT22;16268;49.880;8.648;2023-04-24T08:06:57;15.50;99.90
29241;DHT22;16268;49.880;8.648;2023-04-24T08:09:22;15.40;99.90
29241;DHT22;16268;49.880;8.648;2023-04-24T08:11:48;16.00;99.90
29241;DHT22;16268;49.880;8.648;2023-04-24T08:14:13;16.70;99.90
29241;DHT22;16268;49.880;8.648;2023-04-24T08:16:40;17.80;99.90
29241;DHT22;16268;49.880;8.648;2023-04-24T08:19:06;17.70;99.90
29241;DHT22;16268;49.880;8.648;2023-04-24T08:21:31;17.30;99.30
29241;DHT22;16268;49.880;8.648;2023-04-24T08:23:57;16.60;99.90
29241;DHT22;16268;49.880;8.648;2023-04-24T08:26:23;16.00;99.90
29241;DHT22;16268;49.880;8.648;2023-04-24T08:28:49;15.50;99.90
29241;DHT22;16268;49.880;8.648;2023-04-24T08:31:14;15.20;99.90
29241;DHT22;16268;49.880;8.648;2023-04-24T08:33:40;14.90;99.90
29241;DHT22;16268;49.880;8.648;2023-04-24T08:36:07;15.00;99.90
29241;DHT22;16268;49.880;8.648;2023-04-24T08:38:33;15.20;99.90
29241;DHT22;16268;49.880;8.648;2023-04-24T08:41:00;15.90;99.90
29241;DHT22;16268;49.880;8.648;2023-04-24T08:43:27;17.10;99.90
29241;DHT22;16268;49.880;8.648;2023-04-24T08:45:54;17.40;99.90
29241;DHT22;16268;49.880;8.648;2023-04-24T08:48:22;17.90;99.90
29241;DHT22;16268;49.880;8.648;2023-04-24T08:50:50;17.90;99.90
29241;DHT22;16268;49.880;8.648;2023-04-24T08:53:16;18.20;99.90
29241;DHT22;16268;49.880;8.648;2023-04-24T08:55:43;18.20;98.30
29241;DHT22;16268;49.880;8.648;2023-04-24T08:58:11;17.40;99.90
29241;DHT22;16268;49.880;8.648;2023-04-24T09:00:39;16.90;99.90
29241;DHT22;16268;49.880;8.648;2023-04-24T09:03:05;16.40;99.90
29241;DHT22;16268;49.880;8.648;2023-04-24T09:05:32;16.10;99.90
29241;DHT22;16268;49.880;8.648;2023-04-24T09:07:59;15.90;99.90
29241;DHT22;16268;49.880;8.648;2023-04-24T09:10:26;15.70;99.90
29241;DHT22;16268;49.880;8.648;2023-04-24T09:12:54;15.40;99.90
29241;DHT22;16268;49.880;8.648;2023-04-24T09:15:20;15.00;99.90
29241;DHT22;16268;49.880;8.648;2023-04-24T09:17:46;14.80;99.90
29241;DHT22;16268;49.880;8.648;2023-04-24T09:20:12;14.70;99.90
29241;DHT22;16268;49.880;8.648;2023-04-24T09:22:38;14.60;99.90
29241;DHT22;16268;49.880;8.648;2023-04-24T09:25:06;14.70;99.90
29241;DHT22;16268;49.880;8.648;2023-04-24T09:27:33;14.70;99.90
29241;DHT22;16268;49.880;8.648;2023-04-24T09:29:59;14.70;99.90
29241;DHT22;16268;49.880;8.648;2023-04-24T09:32:26;14.80;99.90
29241;DHT22;16268;49.880;8.648;2023-04-24T09:35:10;14.40;99.90
29241;DHT22;16268;49.880;8.648;2023-04-24T09:37:46;14.30;99.90
29241;DHT22;16268;49.880;8.648;2023-04-24T09:40:17;14.30;99.90
29241;DHT22;16268;49.880;8.648;2023-04-24T09:42:53;14.40;99.90
29241;DHT22;16268;49.880;8.648;2023-04-24T09:45:20;14.40;99.90
29241;DHT22;16268;49.880;8.648;2023-04-24T09:47:45;14.30;99.90
29241;DHT22;16268;49.880;8.648;2023-04-24T09:50:13;14.20;99.90
29241;DHT22;16268;49.880;8.648;2023-04-24T09:52:47;14.20;99.90
29241;DHT22;16268;49.880;8.648;2023-04-24T09:55:18;14.20;99.90
29241;DHT22;16268;49.880;8.648;2023-04-24T09:57:52;14.20;99.90
29241;DHT22;16268;49.880;8.648;2023-04-24T10:00:25;14.20;99.90
29241;DHT22;16268;49.880;8.648;2023-04-24T10:03:02;14.10;99.90
29241;DHT22;16268;49.880;8.648;2023-04-24T10:05:37;14.70;99.90
29241;DHT22;16268;49.880;8.648;2023-04-24T10:08:04;15.90;99.90
29241;DHT22;16268;49.880;8.648;2023-04-24T10:10:38;16.80;99.90
29241;DHT22;16268;49.880;8.648;2023-04-24T10:13:04;17.00;99.90
29241;DHT22;16268;49.880;8.648;2023-04-24T10:15:30;16.60;99.90
29241;DHT22;16268;49.880;8.648;2023-04-24T10:17:58;16.10;99.90
29241;DHT22;16268;49.880;8.648;2023-04-24T10:20:26;15.60;99.90
29241;DHT22;16268;49.880;8.648;2023-04-24T10:22:53;15.20;99.90
29241;DHT22;16268;49.880;8.648;2023-04-24T10:25:28;14.70;99.90
29241;DHT22;16268;49.880;8.648;2023-04-24T10:27:55;14.30;99.90
29241;DHT22;16268;49.880;8.648;2023-04-24T10:30:29;14.00;99.90
29241;DHT22;16268;49.880;8.648;2023-04-24T10:32:54;14.00;99.90
29241;DHT22;16268;49.880;8.648;2023-04-24T10:35:23;13.90;99.90
29241;DHT22;16268;49.880;8.648;2023-04-24T10:37:59;13.80;99.90
29241;DHT22;16268;49.880;8.648;2023-04-24T10:40:32;14.10;99.90
29241;DHT22;16268;49.880;8.648;2023-04-24T10:42:59;14.30;99.90
29241;DHT22;16268;49.880;8.648;2023-04-24T10:45:25;14.60;99.90
29241;DHT22;16268;49.880;8.648;2023-04-24T10:48:01;14.90;99.90
29241;DHT22;16268;49.880;8.648;2023-04-24T10:53:14;15.80;99.90
29241;DHT22;16268;49.880;8.648;2023-04-24T10:58:06;16.00;99.90
29241;DHT22;16268;49.880;8.648;2023-04-24T11:00:32;15.90;99.90
29241;DHT22;16268;49.880;8.648;2023-04-24T11:02:57;15.70;99.90
29241;DHT22;16268;49.880;8.648;2023-04-24T11:05:54;15.50;99.90
29241;DHT22;16268;49.880;8.648;2023-04-24T11:08:46;15.30;99.90
29241;DHT22;16268;49.880;8.648;2023-04-24T11:11:15;15.00;99.90
29241;DHT22;16268;49.880;8.648;2023-04-24T11:19:08;14.10;99.90
29241;DHT22;16268;49.880;8.648;2023-04-24T11:24:25;13.70;99.90
29241;DHT22;16268;49.880;8.648;2023-04-24T11:27:16;13.60;99.90
29241;DHT22;16268;49.880;8.648;2023-04-24T11:32:19;13.40;99.90
29241;DHT22;16268;49.880;8.648;2023-04-24T11:34:49;13.50;99.90
29241;DHT22;16268;49.880;8.648;2023-04-24T11:37:16;13.50;99.90
29241;DHT22;16268;49.880;8.648;2023-04-24T11:39:42;13.50;99.90
29241;DHT22;16268;49.880;8.648;2023-04-24T11:42:09;13.60;99.90
29241;DHT22;16268;49.880;8.648;2023-04-24T11:44:35;13.50;99.90
29241;DHT22;16268;49.880;8.648;2023-04-24T11:47:04;13.50;99.90
29241;DHT22;16268;49.880;8.648;2023-04-24T11:49:30;13.60;99.90
29241;DHT22;16268;49.880;8.648;2023-04-24T11:51:55;13.80;99.90
29241;DHT22;16268;49.880;8.648;2023-04-24T11:54:21;13.90;99.90
29241;DHT22;16268;49.880;8.648;2023-04-24T11:56:48;13.90;99.90
29241;DHT22;16268;49.880;8.648;2023-04-24T11:59:14;13.70;99.90
29241;DHT22;16268;49.880;8.648;2023-04-24T12:01:47;13.70;99.90
29241;DHT22;16268;49.880;8.648;2023-04-24T12:04:13;13.60;99.90
29241;DHT22;16268;49.880;8.648;2023-04-24T12:06:39;13.50;99.90
29241;DHT22;16268;49.880;8.648;2023-04-24T12:09:04;13.30;99.90
29241;DHT22;16268;49.880;8.648;2023-04-24T12:11:30;13.10;99.90
29241;DHT22;16268;49.880;8.648;2023-04-24T12:13:56;12.90;99.90
29241;DHT22;16268;49.880;8.648;2023-04-24T12:16:22;12.90;99.90
29241;DHT22;16268;49.880;8.648;2023-04-24T12:18:48;13.00;99.90
29241;DHT22;16268;49.880;8.648;2023-04-24T12:21:22;13.30;99.90
29241;DHT22;16268;49.880;8.648;2023-04-24T12:23:50;13.50;99.90
29241;DHT22;16268;49.880;8.648;2023-04-24T12:26:17;13.70;99.90
29241;DHT22;16268;49.880;8.648;2023-04-24T12:28:46;13.90;99.90
29241;DHT22;16268;49.880;8.648;2023-04-24T12:31:12;14.20;99.90
29241;DHT22;16268;49.880;8.648;2023-04-24T12:33:38;14.20;99.90
29241;DHT22;16268;49.880;8.648;2023-04-24T12:36:05;14.30;99.90
29241;DHT22;16268;49.880;8.648;2023-04-24T12:38:31;14.20;99.90
29241;DHT22;16268;49.880;8.648;2023-04-24T12:41:14;14.30;99.90
29241;DHT22;16268;49.880;8.648;2023-04-24T12:43:53;14.40;99.90
29241;DHT22;16268;49.880;8.648;2023-04-24T12:46:20;14.40;99.90
29241;DHT22;16268;49.880;8.648;2023-04-24T12:48:46;14.60;99.90
29241;DHT22;16268;49.880;8.648;2023-04-24T12:51:11;14.90;99.90
29241;DHT22;16268;49.880;8.648;2023-04-24T12:53:37;15.00;99.90
29241;DHT22;16268;49.880;8.648;2023-04-24T12:56:03;15.10;99.90
29241;DHT22;16268;49.880;8.648;2023-04-24T12:58:28;15.10;99.90
29241;DHT22;16268;49.880;8.648;2023-04-24T13:00:54;15.20;99.90
29241;DHT22;16268;49.880;8.648;2023-04-24T13:03:19;15.30;99.90
29241;DHT22;16268;49.880;8.648;2023-04-24T13:05:45;15.30;99.90
29241;DHT22;16268;49.880;8.648;2023-04-24T13:08:10;15.10;99.90
29241;DHT22;16268;49.880;8.648;2023-04-24T13:10:38;15.10;99.90
29241;DHT22;16268;49.880;8.648;2023-04-24T13:13:05;15.10;99.90
29241;DHT22;16268;49.880;8.648;2023-04-24T13:15:30;15.20;99.90
29241;DHT22;16268;49.880;8.648;2023-04-24T13:17:56;15.20;99.90
29241;DHT22;16268;49.880;8.648;2023-04-24T13:20:21;15.30;99.90
29241;DHT22;16268;49.880;8.648;2023-04-24T13:22:47;15.50;99.90
29241;DHT22;16268;49.880;8.648;2023-04-24T13:25:12;15.70;99.90
29241;DHT22;16268;49.880;8.648;2023-04-24T13:27:38;15.80;99.90
29241;DHT22;16268;49.880;8.648;2023-04-24T13:30:05;15.80;99.90
29241;DHT22;16268;49.880;8.648;2023-04-24T13:32:32;15.70;99.90
29241;DHT22;16268;49.880;8.648;2023-04-24T13:34:58;15.50;99.90
29241;DHT22;16268;49.880;8.648;2023-04-24T13:37:24;15.40;99.90
29241;DHT22;16268;49.880;8.648;2023-04-24T13:39:49;15.40;99.90
29241;DHT22;16268;49.880;8.648;2023-04-24T13:42:16;15.50;99.90
29241;DHT22;16268;49.880;8.648;2023-04-24T13:44:41;15.50;99.90
29241;DHT22;16268;49.880;8.648;2023-04-24T13:47:07;15.50;99.90
29241;DHT22;16268;49.880;8.648;2023-04-24T13:49:32;15.30;99.90
29241;DHT22;16268;49.880;8.648;2023-04-24T13:52:01;15.10;99.90
29241;DHT22;16268;49.880;8.648;2023-04-24T13:54:27;15.00;99.90
29241;DHT22;16268;49.880;8.648;2023-04-24T13:56:52;14.90;99.90
29241;DHT22;16268;49.880;8.648;2023-04-24T13:59:20;14.70;99.90
29241;DHT22;16268;49.880;8.648;2023-04-24T14:01:46;14.60;99.90
29241;DHT22;16268;49.880;8.648;2023-04-24T14:04:12;14.50;99.90
29241;DHT22;16268;49.880;8.648;2023-04-24T14:06:38;14.60;99.90
29241;DHT22;16268;49.880;8.648;2023-04-24T14:09:03;14.40;99.90
29241;DHT22;16268;49.880;8.648;2023-04-24T14:11:29;14.40;99.90
29241;DHT22;16268;49.880;8.648;2023-04-24T14:13:55;14.50;99.90
29241;DHT22;16268;49.880;8.648;2023-04-24T14:16:23;14.60;99.90
29241;DHT22;16268;49.880;8.648;2023-04-24T14:18:49;14.70;99.90
29241;DHT22;16268;49.880;8.648;2023-04-24T14:21:15;14.60;99.90
29241;DHT22;16268;49.880;8.648;2023-04-24T14:23:41;14.50;99.90
29241;DHT22;16268;49.880;8.648;2023-04-24T14:26:08;14.40;99.90
29241;DHT22;16268;49.880;8.648;2023-04-24T14:28:33;14.20;99.90
29241;DHT22;16268;49.880;8.648;2023-04-24T14:30:59;14.20;99.90
29241;DHT22;16268;49.880;8.648;2023-04-24T14:33:24;14.20;99.90
29241;DHT22;16268;49.880;8.648;2023-04-24T14:35:50;14.20;99.90
29241;DHT22;16268;49.880;8.648;2023-04-24T14:38:16;14.20;99.90
29241;DHT22;16268;49.880;8.648;2023-04-24T14:40:41;14.20;99.90
29241;DHT22;16268;49.880;8.648;2023-04-24T14:43:08;14.20;99.90
29241;DHT22;16268;49.880;8.648;2023-04-24T14:45:34;14.20;99.90
29241;DHT22;16268;49.880;8.648;2023-04-24T14:48:00;14.40;99.90
29241;DHT22;16268;49.880;8.648;2023-04-24T14:50:26;14.40;99.90
29241;DHT22;16268;49.880;8.648;2023-04-24T14:52:55;14.50;99.90
29241;DHT22;16268;49.880;8.648;2023-04-24T14:55:25;14.60;99.90
29241;DHT22;16268;49.880;8.648;2023-04-24T14:57:51;14.60;99.90
29241;DHT22;16268;49.880;8.648;2023-04-24T15:00:17;14.60;99.90
29241;DHT22;16268;49.880;8.648;2023-04-24T15:02:43;14.60;99.90
29241;DHT22;16268;49.880;8.648;2023-04-24T15:05:10;14.50;99.90
29241;DHT22;16268;49.880;8.648;2023-04-24T15:07:35;14.40;99.90
29241;DHT22;16268;49.880;8.648;2023-04-24T15:10:02;14.40;99.90
29241;DHT22;16268;49.880;8.648;2023-04-24T15:12:29;14.30;99.90
29241;DHT22;16268;49.880;8.648;2023-04-24T15:14:55;14.30;99.90
29241;DHT22;16268;49.880;8.648;2023-04-24T15:17:20;14.20;99.90
29241;DHT22;16268;49.880;8.648;2023-04-24T15:19:46;14.20;99.90
29241;DHT22;16268;49.880;8.648;2023-04-24T15:22:11;14.20;99.90
29241;DHT22;16268;49.880;8.648;2023-04-24T15:24:37;14.30;99.90
29241;DHT22;16268;49.880;8.648;2023-04-24T15:27:03;14.40;99.90
29241;DHT22;16268;49.880;8.648;2023-04-24T15:29:29;14.60;99.90
29241;DHT22;16268;49.880;8.648;2023-04-24T15:31:54;14.70;99.90
29241;DHT22;16268;49.880;8.648;2023-04-24T15:34:20;14.80;99.90
29241;DHT22;16268;49.880;8.648;2023-04-24T15:36:45;14.90;99.90
29241;DHT22;16268;49.880;8.648;2023-04-24T15:39:11;14.90;99.90
29241;DHT22;16268;49.880;8.648;2023-04-24T15:41:37;14.70;99.90
29241;DHT22;16268;49.880;8.648;2023-04-24T15:44:02;14.60;99.90
29241;DHT22;16268;49.880;8.648;2023-04-24T15:46:29;14.70;99.90